sensor_id;sensor_type;location;lat;lon;timestamp;temperature;humidity
70534;SHT31;58088;51.186;17.130;2023-04-03T00:01:23;3.22;64.41
70534;SHT31;58088;51.186;17.130;2023-04-03T00:03:50;3.19;64.46
70534;SHT31;58088;51.186;17.130;2023-04-03T00:06:17;3.16;64.51
70534;SHT31;58088;51.186;17.130;2023-04-03T00:08:43;3.15;64.60
70534;SHT31;58088;51.186;17.130;2023-04-03T00:11:10;3.14;64.67
70534;SHT31;58088;51.186;17.130;2023-04-03T00:13:36;3.11;64.74
70534;SHT31;58088;51.186;17.130;2023-04-03T00:16:04;3.10;64.76
70534;SHT31;58088;51.186;17.130;2023-04-03T00:18:31;3.08;64.89
70534;SHT31;58088;51.186;17.130;2023-04-03T00:20:57;3.08;64.88
70534;SHT31;58088;51.186;17.130;2023-04-03T00:23:24;3.07;64.96
70534;SHT31;58088;51.186;17.130;2023-04-03T00:25:50;3.05;65.05
70534;SHT31;58088;51.186;17.130;2023-04-03T00:28:17;3.04;65.16
70534;SHT31;58088;51.186;17.130;2023-04-03T00:30:43;3.05;65.15
70534;SHT31;58088;51.186;17.130;2023-04-03T00:33:13;3.03;65.24
70534;SHT31;58088;51.186;17.130;2023-04-03T00:35:39;3.01;65.27
70534;SHT31;58088;51.186;17.130;2023-04-03T00:38:06;2.98;65.40
70534;SHT31;58088;51.186;17.130;2023-04-03T00:40:34;2.92;65.54
70534;SHT31;58088;51.186;17.130;2023-04-03T00:43:19;2.90;65.62
70534;SHT31;58088;51.186;17.130;2023-04-03T00:45:52;2.86;65.73
70534;SHT31;58088;51.186;17.130;2023-04-03T00:48:31;2.83;65.81
70534;SHT31;58088;51.186;17.130;2023-04-03T00:51:04;2.81;65.92
70534;SHT31;58088;51.186;17.130;2023-04-03T00:53:56;2.81;65.99
70534;SHT31;58088;51.186;17.130;2023-04-03T00:56:25;2.76;66.06
70534;SHT31;58088;51.186;17.130;2023-04-03T01:01:31;2.72;66.36
70534;SHT31;58088;51.186;17.130;2023-04-03T01:03:58;2.69;66.47
70534;SHT31;58088;51.186;17.130;2023-04-03T01:06:27;2.68;66.50
70534;SHT31;58088;51.186;17.130;2023-04-03T01:09:03;2.67;66.57
70534;SHT31;58088;51.186;17.130;2023-04-03T01:11:31;2.66;66.60
70534;SHT31;58088;51.186;17.130;2023-04-03T01:13:57;2.65;66.64
70534;SHT31;58088;51.186;17.130;2023-04-03T01:16:23;2.65;66.79
70534;SHT31;58088;51.186;17.130;2023-04-03T01:18:49;2.62;66.93
70534;SHT31;58088;51.186;17.130;2023-04-03T01:21:30;2.61;67.03
70534;SHT31;58088;51.186;17.130;2023-04-03T01:26:58;2.58;67.21
70534;SHT31;58088;51.186;17.130;2023-04-03T01:29:28;2.58;67.29
70534;SHT31;58088;51.186;17.130;2023-04-03T01:31:55;2.57;67.33
70534;SHT31;58088;51.186;17.130;2023-04-03T01:34:26;2.56;67.50
70534;SHT31;58088;51.186;17.130;2023-04-03T01:36:55;2.52;67.60
70534;SHT31;58088;51.186;17.130;2023-04-03T01:39:21;2.50;67.75
70534;SHT31;58088;51.186;17.130;2023-04-03T01:41:49;2.50;67.85
70534;SHT31;58088;51.186;17.130;2023-04-03T01:44:37;2.48;67.90
70534;SHT31;58088;51.186;17.130;2023-04-03T01:47:05;2.46;67.97
70534;SHT31;58088;51.186;17.130;2023-04-03T01:49:33;2.42;68.07
70534;SHT31;58088;51.186;17.130;2023-04-03T01:51:59;2.39;68.25
70534;SHT31;58088;51.186;17.130;2023-04-03T01:54:26;2.36;68.33
70534;SHT31;58088;51.186;17.130;2023-04-03T01:56:52;2.35;68.47
70534;SHT31;58088;51.186;17.130;2023-04-03T01:59:19;2.37;68.52
70534;SHT31;58088;51.186;17.130;2023-04-03T02:04:58;2.31;68.77
70534;SHT31;58088;51.186;17.130;2023-04-03T02:07:24;2.28;68.83
70534;SHT31;58088;51.186;17.130;2023-04-03T02:09:51;2.26;68.87
70534;SHT31;58088;51.186;17.130;2023-04-03T02:12:17;2.23;68.91
70534;SHT31;58088;51.186;17.130;2023-04-03T02:14:43;2.22;69.04
70534;SHT31;58088;51.186;17.130;2023-04-03T02:17:11;2.17;69.17
70534;SHT31;58088;51.186;17.130;2023-04-03T02:19:37;2.15;69.19
70534;SHT31;58088;51.186;17.130;2023-04-03T02:22:04;2.13;69.26
70534;SHT31;58088;51.186;17.130;2023-04-03T02:24:31;2.11;69.38
70534;SHT31;58088;51.186;17.130;2023-04-03T02:26:58;2.08;69.45
70534;SHT31;58088;51.186;17.130;2023-04-03T02:29:25;2.07;69.51
70534;SHT31;58088;51.186;17.130;2023-04-03T02:31:52;2.04;69.63
70534;SHT31;58088;51.186;17.130;2023-04-03T02:34:19;2.00;69.83
70534;SHT31;58088;51.186;17.130;2023-04-03T02:36:46;1.96;69.90
70534;SHT31;58088;51.186;17.130;2023-04-03T02:39:13;1.93;70.02
70534;SHT31;58088;51.186;17.130;2023-04-03T02:41:39;1.90;70.09
70534;SHT31;58088;51.186;17.130;2023-04-03T02:44:10;1.90;70.15
70534;SHT31;58088;51.186;17.130;2023-04-03T02:46:38;1.88;70.15
70534;SHT31;58088;51.186;17.130;2023-04-03T02:49:05;1.85;70.28
70534;SHT31;58088;51.186;17.130;2023-04-03T02:51:31;1.81;70.46
70534;SHT31;58088;51.186;17.130;2023-04-03T02:53:58;1.80;70.58
70534;SHT31;58088;51.186;17.130;2023-04-03T02:56:26;1.78;70.62
70534;SHT31;58088;51.186;17.130;2023-04-03T02:58:52;1.77;70.74
70534;SHT31;58088;51.186;17.130;2023-04-03T03:01:19;1.74;70.81
70534;SHT31;58088;51.186;17.130;2023-04-03T03:03:45;1.74;70.90
70534;SHT31;58088;51.186;17.130;2023-04-03T03:06:13;1.72;70.90
70534;SHT31;58088;51.186;17.130;2023-04-03T03:08:42;1.70;70.94
70534;SHT31;58088;51.186;17.130;2023-04-03T03:11:09;1.68;71.06
70534;SHT31;58088;51.186;17.130;2023-04-03T03:13:36;1.65;71.12
70534;SHT31;58088;51.186;17.130;2023-04-03T03:16:03;1.62;71.15
70534;SHT31;58088;51.186;17.130;2023-04-03T03:18:30;1.59;71.32
70534;SHT31;58088;51.186;17.130;2023-04-03T03:20:57;1.56;71.44
70534;SHT31;58088;51.186;17.130;2023-04-03T03:23:26;1.56;71.39
70534;SHT31;58088;51.186;17.130;2023-04-03T03:25:55;1.53;71.52
70534;SHT31;58088;51.186;17.130;2023-04-03T03:28:23;1.51;71.60
70534;SHT31;58088;51.186;17.130;2023-04-03T03:30:50;1.49;71.79
70534;SHT31;58088;51.186;17.130;2023-04-03T03:33:17;1.47;71.88
70534;SHT31;58088;51.186;17.130;2023-04-03T03:35:44;1.45;71.95
70534;SHT31;58088;51.186;17.130;2023-04-03T03:38:11;1.43;71.99
70534;SHT31;58088;51.186;17.130;2023-04-03T03:40:38;1.42;72.06
70534;SHT31;58088;51.186;17.130;2023-04-03T03:43:05;1.41;72.04
70534;SHT31;58088;51.186;17.130;2023-04-03T03:45:31;1.39;72.05
70534;SHT31;58088;51.186;17.130;2023-04-03T03:47:57;1.38;72.15
70534;SHT31;58088;51.186;17.130;2023-04-03T03:50:24;1.36;72.36
70534;SHT31;58088;51.186;17.130;2023-04-03T03:52:50;1.35;72.30
70534;SHT31;58088;51.186;17.130;2023-04-03T03:55:17;1.33;72.40
70534;SHT31;58088;51.186;17.130;2023-04-03T03:57:44;1.31;72.33
70534;SHT31;58088;51.186;17.130;2023-04-03T04:00:11;1.30;72.42
70534;SHT31;58088;51.186;17.130;2023-04-03T04:02:41;1.28;72.58
70534;SHT31;58088;51.186;17.130;2023-04-03T04:05:11;1.27;72.67
70534;SHT31;58088;51.186;17.130;2023-04-03T04:07:37;1.26;72.69
70534;SHT31;58088;51.186;17.130;2023-04-03T04:10:04;1.25;72.72
70534;SHT31;58088;51.186;17.130;2023-04-03T04:12:31;1.25;72.75
70534;SHT31;58088;51.186;17.130;2023-04-03T04:14:58;1.24;72.73
70534;SHT31;58088;51.186;17.130;2023-04-03T04:17:25;1.22;72.81
70534;SHT31;58088;51.186;17.130;2023-04-03T04:19:51;1.21;72.93
70534;SHT31;58088;51.186;17.130;2023-04-03T04:22:18;1.19;73.05
70534;SHT31;58088;51.186;17.130;2023-04-03T04:24:44;1.19;73.05
70534;SHT31;58088;51.186;17.130;2023-04-03T04:27:10;1.19;73.07
70534;SHT31;58088;51.186;17.130;2023-04-03T04:29:37;1.19;73.09
70534;SHT31;58088;51.186;17.130;2023-04-03T04:32:04;1.21;73.06
70534;SHT31;58088;51.186;17.130;2023-04-03T04:34:30;1.19;73.15
70534;SHT31;58088;51.186;17.130;2023-04-03T04:36:57;1.19;73.12
70534;SHT31;58088;51.186;17.130;2023-04-03T04:39:23;1.20;73.13
70534;SHT31;58088;51.186;17.130;2023-04-03T04:41:50;1.21;73.11
70534;SHT31;58088;51.186;17.130;2023-04-03T04:44:17;1.38;73.13
70534;SHT31;58088;51.186;17.130;2023-04-03T04:46:43;1.72;72.75
70534;SHT31;58088;51.186;17.130;2023-04-03T04:49:10;2.06;72.29
70534;SHT31;58088;51.186;17.130;2023-04-03T04:51:36;2.41;71.74
70534;SHT31;58088;51.186;17.130;2023-04-03T04:54:02;2.77;71.04
70534;SHT31;58088;51.186;17.130;2023-04-03T04:56:28;3.14;70.37
70534;SHT31;58088;51.186;17.130;2023-04-03T04:58:55;3.53;69.72
70534;SHT31;58088;51.186;17.130;2023-04-03T05:01:22;3.90;68.92
70534;SHT31;58088;51.186;17.130;2023-04-03T05:03:54;4.27;68.08
70534;SHT31;58088;51.186;17.130;2023-04-03T05:06:21;4.63;67.16
70534;SHT31;58088;51.186;17.130;2023-04-03T05:08:50;4.92;66.27
70534;SHT31;58088;51.186;17.130;2023-04-03T05:11:16;5.20;65.73
70534;SHT31;58088;51.186;17.130;2023-04-03T05:13:43;5.45;65.02
70534;SHT31;58088;51.186;17.130;2023-04-03T05:16:09;5.72;64.51
70534;SHT31;58088;51.186;17.130;2023-04-03T05:18:37;5.95;63.51
70534;SHT31;58088;51.186;17.130;2023-04-03T05:21:07;6.20;62.69
70534;SHT31;58088;51.186;17.130;2023-04-03T05:23:33;6.36;62.08
70534;SHT31;58088;51.186;17.130;2023-04-03T05:26:00;6.57;61.58
70534;SHT31;58088;51.186;17.130;2023-04-03T05:28:26;6.80;61.34
70534;SHT31;58088;51.186;17.130;2023-04-03T05:30:56;6.89;60.49
70534;SHT31;58088;51.186;17.130;2023-04-03T05:33:27;7.01;59.94
70534;SHT31;58088;51.186;17.130;2023-04-03T05:35:55;7.16;59.61
70534;SHT31;58088;51.186;17.130;2023-04-03T05:38:26;7.37;59.30
70534;SHT31;58088;51.186;17.130;2023-04-03T05:40:52;7.55;58.51
70534;SHT31;58088;51.186;17.130;2023-04-03T05:43:19;7.66;58.16
70534;SHT31;58088;51.186;17.130;2023-04-03T05:45:47;7.84;57.91
70534;SHT31;58088;51.186;17.130;2023-04-03T05:48:14;8.04;57.43
70534;SHT31;58088;51.186;17.130;2023-04-03T05:50:40;8.10;56.57
70534;SHT31;58088;51.186;17.130;2023-04-03T05:53:17;8.15;56.41
70534;SHT31;58088;51.186;17.130;2023-04-03T05:55:53;8.23;56.29
70534;SHT31;58088;51.186;17.130;2023-04-03T05:58:20;8.32;56.08
70534;SHT31;58088;51.186;17.130;2023-04-03T06:00:47;8.48;55.58
70534;SHT31;58088;51.186;17.130;2023-04-03T06:03:14;8.52;55.25
70534;SHT31;58088;51.186;17.130;2023-04-03T06:05:42;8.57;55.11
70534;SHT31;58088;51.186;17.130;2023-04-03T06:08:10;8.55;54.85
70534;SHT31;58088;51.186;17.130;2023-04-03T06:10:36;8.59;54.57
70534;SHT31;58088;51.186;17.130;2023-04-03T06:13:03;8.54;54.42
70534;SHT31;58088;51.186;17.130;2023-04-03T06:15:30;8.43;54.32
70534;SHT31;58088;51.186;17.130;2023-04-03T06:17:56;8.32;54.10
70534;SHT31;58088;51.186;17.130;2023-04-03T06:20:22;8.38;54.50
70534;SHT31;58088;51.186;17.130;2023-04-03T06:22:49;8.44;54.13
70534;SHT31;58088;51.186;17.130;2023-04-03T06:25:16;8.41;53.91
70534;SHT31;58088;51.186;17.130;2023-04-03T06:27:44;8.18;54.04
70534;SHT31;58088;51.186;17.130;2023-04-03T06:30:11;8.03;54.03
70534;SHT31;58088;51.186;17.130;2023-04-03T06:32:37;7.85;53.84
70534;SHT31;58088;51.186;17.130;2023-04-03T06:35:04;7.63;54.18
70534;SHT31;58088;51.186;17.130;2023-04-03T06:37:31;7.48;54.45
70534;SHT31;58088;51.186;17.130;2023-04-03T06:39:58;7.56;54.76
70534;SHT31;58088;51.186;17.130;2023-04-03T06:42:25;7.65;54.51
70534;SHT31;58088;51.186;17.130;2023-04-03T06:45:00;7.52;54.46
70534;SHT31;58088;51.186;17.130;2023-04-03T06:47:26;7.59;54.71
70534;SHT31;58088;51.186;17.130;2023-04-03T06:49:52;7.51;54.94
70534;SHT31;58088;51.186;17.130;2023-04-03T06:52:18;7.58;54.78
70534;SHT31;58088;51.186;17.130;2023-04-03T06:54:45;7.59;54.38
70534;SHT31;58088;51.186;17.130;2023-04-03T06:57:11;7.33;54.42
70534;SHT31;58088;51.186;17.130;2023-04-03T06:59:37;7.12;54.84
70534;SHT31;58088;51.186;17.130;2023-04-03T07:02:03;6.84;55.37
70534;SHT31;58088;51.186;17.130;2023-04-03T07:04:30;6.75;55.68
70534;SHT31;58088;51.186;17.130;2023-04-03T07:06:56;6.99;55.83
70534;SHT31;58088;51.186;17.130;2023-04-03T07:09:22;7.24;55.69
70534;SHT31;58088;51.186;17.130;2023-04-03T07:11:48;7.13;55.38
70534;SHT31;58088;51.186;17.130;2023-04-03T07:14:15;6.98;54.86
70534;SHT31;58088;51.186;17.130;2023-04-03T07:16:41;6.80;54.84
70534;SHT31;58088;51.186;17.130;2023-04-03T07:19:07;6.56;55.28
70534;SHT31;58088;51.186;17.130;2023-04-03T07:21:34;6.37;55.51
70534;SHT31;58088;51.186;17.130;2023-04-03T07:24:00;6.41;56.04
70534;SHT31;58088;51.186;17.130;2023-04-03T07:26:27;6.59;55.88
70534;SHT31;58088;51.186;17.130;2023-04-03T07:28:53;6.63;55.88
70534;SHT31;58088;51.186;17.130;2023-04-03T07:31:20;6.69;55.58
70534;SHT31;58088;51.186;17.130;2023-04-03T07:33:47;6.68;55.38
70534;SHT31;58088;51.186;17.130;2023-04-03T07:36:18;6.62;55.16
70534;SHT31;58088;51.186;17.130;2023-04-03T07:38:46;6.64;55.03
70534;SHT31;58088;51.186;17.130;2023-04-03T07:41:17;6.71;54.67
70534;SHT31;58088;51.186;17.130;2023-04-03T07:43:47;6.72;54.35
70534;SHT31;58088;51.186;17.130;2023-04-03T07:46:15;6.95;55.12
70534;SHT31;58088;51.186;17.130;2023-04-03T07:48:43;7.07;54.21
70534;SHT31;58088;51.186;17.130;2023-04-03T07:51:09;7.11;54.10
70534;SHT31;58088;51.186;17.130;2023-04-03T07:53:36;7.08;54.44
70534;SHT31;58088;51.186;17.130;2023-04-03T07:56:02;7.15;54.81
70534;SHT31;58088;51.186;17.130;2023-04-03T07:58:28;7.08;54.39
70534;SHT31;58088;51.186;17.130;2023-04-03T08:00:56;7.09;54.38
70534;SHT31;58088;51.186;17.130;2023-04-03T08:03:22;7.26;54.33
70534;SHT31;58088;51.186;17.130;2023-04-03T08:05:49;7.42;54.18
70534;SHT31;58088;51.186;17.130;2023-04-03T08:08:17;7.32;53.62
70534;SHT31;58088;51.186;17.130;2023-04-03T08:10:51;7.33;53.31
70534;SHT31;58088;51.186;17.130;2023-04-03T08:13:19;7.34;52.93
70534;SHT31;58088;51.186;17.130;2023-04-03T08:15:47;7.43;52.98
70534;SHT31;58088;51.186;17.130;2023-04-03T08:18:14;7.50;52.41
70534;SHT31;58088;51.186;17.130;2023-04-03T08:20:41;7.55;51.91
70534;SHT31;58088;51.186;17.130;2023-04-03T08:23:08;7.68;52.84
70534;SHT31;58088;51.186;17.130;2023-04-03T08:25:42;7.90;53.11
70534;SHT31;58088;51.186;17.130;2023-04-03T08:28:09;7.98;51.66
70534;SHT31;58088;51.186;17.130;2023-04-03T08:30:40;8.01;51.80
70534;SHT31;58088;51.186;17.130;2023-04-03T08:33:08;8.01;51.38
70534;SHT31;58088;51.186;17.130;2023-04-03T08:35:39;8.15;51.59
70534;SHT31;58088;51.186;17.130;2023-04-03T08:38:07;8.17;51.08
70534;SHT31;58088;51.186;17.130;2023-04-03T08:40:34;8.19;49.69
70534;SHT31;58088;51.186;17.130;2023-04-03T08:46:21;8.16;47.63
70534;SHT31;58088;51.186;17.130;2023-04-03T08:49:01;8.35;50.41
70534;SHT31;58088;51.186;17.130;2023-04-03T08:51:28;8.55;50.01
70534;SHT31;58088;51.186;17.130;2023-04-03T08:54:00;8.60;49.28
70534;SHT31;58088;51.186;17.130;2023-04-03T08:56:33;8.41;47.68
70534;SHT31;58088;51.186;17.130;2023-04-03T08:59:05;8.20;46.36
70534;SHT31;58088;51.186;17.130;2023-04-03T09:01:39;8.06;44.64
70534;SHT31;58088;51.186;17.130;2023-04-03T09:04:11;7.99;44.47
70534;SHT31;58088;51.186;17.130;2023-04-03T09:06:42;7.86;44.04
70534;SHT31;58088;51.186;17.130;2023-04-03T09:14:52;7.51;43.55
70534;SHT31;58088;51.186;17.130;2023-04-03T09:22:46;7.62;43.66
70534;SHT31;58088;51.186;17.130;2023-04-03T09:25:16;7.61;44.78
70534;SHT31;58088;51.186;17.130;2023-04-03T09:27:47;7.59;45.42
70534;SHT31;58088;51.186;17.130;2023-04-03T09:30:15;7.54;45.53
70534;SHT31;58088;51.186;17.130;2023-04-03T09:32:50;7.63;45.73
70534;SHT31;58088;51.186;17.130;2023-04-03T09:35:21;7.69;45.46
70534;SHT31;58088;51.186;17.130;2023-04-03T09:37:53;7.80;44.13
70534;SHT31;58088;51.186;17.130;2023-04-03T09:40:42;7.72;43.52
70534;SHT31;58088;51.186;17.130;2023-04-03T09:45:43;7.90;43.55
70534;SHT31;58088;51.186;17.130;2023-04-03T09:56:27;7.98;43.83
70534;SHT31;58088;51.186;17.130;2023-04-03T10:04:09;8.14;44.07
70534;SHT31;58088;51.186;17.130;2023-04-03T10:12:05;7.72;44.48
70534;SHT31;58088;51.186;17.130;2023-04-03T10:14:37;7.49;44.67
70534;SHT31;58088;51.186;17.130;2023-04-03T10:22:56;7.25;44.77
70534;SHT31;58088;51.186;17.130;2023-04-03T10:34:43;7.53;43.69
70534;SHT31;58088;51.186;17.130;2023-04-03T10:37:54;7.49;44.46
70534;SHT31;58088;51.186;17.130;2023-04-03T10:43:17;7.27;45.58
70534;SHT31;58088;51.186;17.130;2023-04-03T10:46:04;7.34;46.69
70534;SHT31;58088;51.186;17.130;2023-04-03T10:48:45;7.34;45.98
70534;SHT31;58088;51.186;17.130;2023-04-03T10:51:43;7.29;45.65
70534;SHT31;58088;51.186;17.130;2023-04-03T10:54:19;7.23;45.61
70534;SHT31;58088;51.186;17.130;2023-04-03T10:57:10;7.16;45.44
70534;SHT31;58088;51.186;17.130;2023-04-03T11:02:11;7.13;44.46
70534;SHT31;58088;51.186;17.130;2023-04-03T11:07:51;7.41;44.47
70534;SHT31;58088;51.186;17.130;2023-04-03T11:16:43;7.78;45.33
70534;SHT31;58088;51.186;17.130;2023-04-03T11:19:27;7.78;43.75
70534;SHT31;58088;51.186;17.130;2023-04-03T11:22:03;7.59;43.81
70534;SHT31;58088;51.186;17.130;2023-04-03T11:24:39;7.57;43.48
70534;SHT31;58088;51.186;17.130;2023-04-03T11:27:18;7.63;43.78
70534;SHT31;58088;51.186;17.130;2023-04-03T11:29:49;7.55;44.06
70534;SHT31;58088;51.186;17.130;2023-04-03T11:34:59;7.21;44.59
70534;SHT31;58088;51.186;17.130;2023-04-03T11:42:42;7.59;43.34
70534;SHT31;58088;51.186;17.130;2023-04-03T11:50:47;7.48;41.03
70534;SHT31;58088;51.186;17.130;2023-04-03T11:55:44;7.70;39.94
70534;SHT31;58088;51.186;17.130;2023-04-03T11:58:17;7.72;40.92
70534;SHT31;58088;51.186;17.130;2023-04-03T12:00:51;7.62;41.78
70534;SHT31;58088;51.186;17.130;2023-04-03T12:19:27;7.53;42.25
70534;SHT31;58088;51.186;17.130;2023-04-03T12:35:29;7.38;41.56
70534;SHT31;58088;51.186;17.130;2023-04-03T12:47:23;7.58;42.56
70534;SHT31;58088;51.186;17.130;2023-04-03T12:49:50;7.51;42.61
70534;SHT31;58088;51.186;17.130;2023-04-03T12:52:21;7.44;42.54
70534;SHT31;58088;51.186;17.130;2023-04-03T12:55:01;7.40;41.95
70534;SHT31;58088;51.186;17.130;2023-04-03T12:57:32;7.45;41.13
70534;SHT31;58088;51.186;17.130;2023-04-03T12:59:59;7.53;41.61
70534;SHT31;58088;51.186;17.130;2023-04-03T13:02:29;7.63;40.35
70534;SHT31;58088;51.186;17.130;2023-04-03T13:05:06;7.70;40.19
70534;SHT31;58088;51.186;17.130;2023-04-03T13:07:36;7.76;40.14
70534;SHT31;58088;51.186;17.130;2023-04-03T13:12:45;7.65;40.08
70534;SHT31;58088;51.186;17.130;2023-04-03T13:15:20;7.64;41.39
70534;SHT31;58088;51.186;17.130;2023-04-03T13:17:52;7.72;41.11
70534;SHT31;58088;51.186;17.130;2023-04-03T13:20:29;7.77;41.92
70534;SHT31;58088;51.186;17.130;2023-04-03T13:23:02;7.76;41.10
70534;SHT31;58088;51.186;17.130;2023-04-03T13:25:35;7.74;41.54
70534;SHT31;58088;51.186;17.130;2023-04-03T13:28:09;7.77;41.05
70534;SHT31;58088;51.186;17.130;2023-04-03T13:30:41;7.85;40.70
70534;SHT31;58088;51.186;17.130;2023-04-03T13:33:33;7.79;39.78
70534;SHT31;58088;51.186;17.130;2023-04-03T13:36:16;7.70;39.91
70534;SHT31;58088;51.186;17.130;2023-04-03T13:38:57;7.64;41.18
70534;SHT31;58088;51.186;17.130;2023-04-03T13:41:50;7.53;40.58
70534;SHT31;58088;51.186;17.130;2023-04-03T13:49:58;7.55;40.27
70534;SHT31;58088;51.186;17.130;2023-04-03T13:52:32;7.62;41.19
70534;SHT31;58088;51.186;17.130;2023-04-03T13:55:15;7.65;41.23
70534;SHT31;58088;51.186;17.130;2023-04-03T13:57:53;7.61;40.25
70534;SHT31;58088;51.186;17.130;2023-04-03T14:00:36;7.48;39.55
70534;SHT31;58088;51.186;17.130;2023-04-03T14:06:24;7.36;40.33
70534;SHT31;58088;51.186;17.130;2023-04-03T14:08:51;7.37;40.72
70534;SHT31;58088;51.186;17.130;2023-04-03T14:11:20;7.43;41.20
70534;SHT31;58088;51.186;17.130;2023-04-03T14:13:53;7.51;40.98
70534;SHT31;58088;51.186;17.130;2023-04-03T14:16:20;7.58;40.68
70534;SHT31;58088;51.186;17.130;2023-04-03T14:18:51;7.67;40.60
70534;SHT31;58088;51.186;17.130;2023-04-03T14:21:19;7.73;40.26
70534;SHT31;58088;51.186;17.130;2023-04-03T14:23:47;7.76;40.23
70534;SHT31;58088;51.186;17.130;2023-04-03T14:26:15;7.77;40.19
70534;SHT31;58088;51.186;17.130;2023-04-03T14:28:47;7.75;40.43
70534;SHT31;58088;51.186;17.130;2023-04-03T14:31:17;7.65;40.77
70534;SHT31;58088;51.186;17.130;2023-04-03T14:33:44;7.50;39.83
70534;SHT31;58088;51.186;17.130;2023-04-03T14:36:15;7.47;39.79
70534;SHT31;58088;51.186;17.130;2023-04-03T14:38:49;7.47;39.39
70534;SHT31;58088;51.186;17.130;2023-04-03T14:41:16;7.47;38.64
70534;SHT31;58088;51.186;17.130;2023-04-03T14:43:47;7.47;38.35
70534;SHT31;58088;51.186;17.130;2023-04-03T14:46:37;7.44;38.24
70534;SHT31;58088;51.186;17.130;2023-04-03T14:49:08;7.33;38.59
70534;SHT31;58088;51.186;17.130;2023-04-03T14:51:41;7.27;39.22
70534;SHT31;58088;51.186;17.130;2023-04-03T14:54:25;7.23;39.03
70534;SHT31;58088;51.186;17.130;2023-04-03T14:56:56;7.16;39.44
70534;SHT31;58088;51.186;17.130;2023-04-03T14:59:25;7.17;40.03
70534;SHT31;58088;51.186;17.130;2023-04-03T15:01:53;7.24;40.32
70534;SHT31;58088;51.186;17.130;2023-04-03T15:04:20;7.28;39.87
70534;SHT31;58088;51.186;17.130;2023-04-03T15:06:47;7.25;39.59
70534;SHT31;58088;51.186;17.130;2023-04-03T15:09:22;7.13;39.02
70534;SHT31;58088;51.186;17.130;2023-04-03T15:11:51;7.07;39.21
70534;SHT31;58088;51.186;17.130;2023-04-03T15:14:20;7.03;39.10
70534;SHT31;58088;51.186;17.130;2023-04-03T15:16:47;6.97;39.22
70534;SHT31;58088;51.186;17.130;2023-04-03T15:19:14;6.99;39.75
70534;SHT31;58088;51.186;17.130;2023-04-03T15:21:40;6.99;39.43
70534;SHT31;58088;51.186;17.130;2023-04-03T15:24:06;6.99;39.42
70534;SHT31;58088;51.186;17.130;2023-04-03T15:26:34;6.97;40.41
70534;SHT31;58088;51.186;17.130;2023-04-03T15:29:01;6.95;40.12
70534;SHT31;58088;51.186;17.130;2023-04-03T15:31:27;6.91;40.71
70534;SHT31;58088;51.186;17.130;2023-04-03T15:33:53;6.90;41.13
70534;SHT31;58088;51.186;17.130;2023-04-03T15:36:20;6.81;41.06
70534;SHT31;58088;51.186;17.130;2023-04-03T15:38:46;6.73;41.91
70534;SHT31;58088;51.186;17.130;2023-04-03T15:41:13;6.68;42.41
70534;SHT31;58088;51.186;17.130;2023-04-03T15:43:39;6.67;42.44
70534;SHT31;58088;51.186;17.130;2023-04-03T15:46:05;6.64;42.26
70534;SHT31;58088;51.186;17.130;2023-04-03T15:48:32;6.61;42.66
70534;SHT31;58088;51.186;17.130;2023-04-03T15:50:59;6.60;43.04
70534;SHT31;58088;51.186;17.130;2023-04-03T15:53:26;6.59;42.83
70534;SHT31;58088;51.186;17.130;2023-04-03T15:55:52;6.57;42.48
70534;SHT31;58088;51.186;17.130;2023-04-03T15:58:18;6.56;42.52
70534;SHT31;58088;51.186;17.130;2023-04-03T16:00:45;6.58;42.86
70534;SHT31;58088;51.186;17.130;2023-04-03T16:03:12;6.56;43.08
70534;SHT31;58088;51.186;17.130;2023-04-03T16:05:44;6.55;43.32
70534;SHT31;58088;51.186;17.130;2023-04-03T16:08:11;6.55;43.55
70534;SHT31;58088;51.186;17.130;2023-04-03T16:10:39;6.54;43.35
70534;SHT31;58088;51.186;17.130;2023-04-03T16:13:06;6.50;43.57
70534;SHT31;58088;51.186;17.130;2023-04-03T16:15:33;6.43;43.43
70534;SHT31;58088;51.186;17.130;2023-04-03T16:18:01;6.34;43.02
70534;SHT31;58088;51.186;17.130;2023-04-03T16:20:28;6.29;42.75
70534;SHT31;58088;51.186;17.130;2023-04-03T16:22:56;6.26;42.98
70534;SHT31;58088;51.186;17.130;2023-04-03T16:25:25;6.25;43.55
70534;SHT31;58088;51.186;17.130;2023-04-03T16:27:52;6.26;43.83
70534;SHT31;58088;51.186;17.130;2023-04-03T16:30:19;6.24;44.09
70534;SHT31;58088;51.186;17.130;2023-04-03T16:32:45;6.26;43.90
70534;SHT31;58088;51.186;17.130;2023-04-03T16:35:11;6.21;44.22
70534;SHT31;58088;51.186;17.130;2023-04-03T16:37:38;6.17;43.91
70534;SHT31;58088;51.186;17.130;2023-04-03T16:40:06;6.13;43.39
70534;SHT31;58088;51.186;17.130;2023-04-03T16:42:34;6.11;43.56
70534;SHT31;58088;51.186;17.130;2023-04-03T16:45:01;6.11;43.99
70534;SHT31;58088;51.186;17.130;2023-04-03T16:47:29;6.09;44.31
70534;SHT31;58088;51.186;17.130;2023-04-03T16:49:56;6.05;44.27
70534;SHT31;58088;51.186;17.130;2023-04-03T16:52:22;6.01;44.60
70534;SHT31;58088;51.186;17.130;2023-04-03T16:54:48;5.98;44.73
70534;SHT31;58088;51.186;17.130;2023-04-03T16:57:17;5.96;44.70
70534;SHT31;58088;51.186;17.130;2023-04-03T16:59:43;5.91;44.73
70534;SHT31;58088;51.186;17.130;2023-04-03T17:02:09;5.87;44.68
70534;SHT31;58088;51.186;17.130;2023-04-03T17:04:35;5.83;44.68
70534;SHT31;58088;51.186;17.130;2023-04-03T17:07:01;5.80;44.91
70534;SHT31;58088;51.186;17.130;2023-04-03T17:09:32;5.77;45.30
70534;SHT31;58088;51.186;17.130;2023-04-03T17:11:59;5.74;45.40
70534;SHT31;58088;51.186;17.130;2023-04-03T17:14:25;5.72;45.40
70534;SHT31;58088;51.186;17.130;2023-04-03T17:16:52;5.70;45.78
70534;SHT31;58088;51.186;17.130;2023-04-03T17:19:18;5.68;45.72
70534;SHT31;58088;51.186;17.130;2023-04-03T17:21:45;5.67;45.79
70534;SHT31;58088;51.186;17.130;2023-04-03T17:24:12;5.66;46.08
70534;SHT31;58088;51.186;17.130;2023-04-03T17:26:40;5.63;45.77
70534;SHT31;58088;51.186;17.130;2023-04-03T17:29:07;5.61;45.83
70534;SHT31;58088;51.186;17.130;2023-04-03T17:31:34;5.58;45.89
70534;SHT31;58088;51.186;17.130;2023-04-03T17:34:02;5.57;46.12
70534;SHT31;58088;51.186;17.130;2023-04-03T17:36:29;5.56;46.12
70534;SHT31;58088;51.186;17.130;2023-04-03T17:38:58;5.56;46.30
70534;SHT31;58088;51.186;17.130;2023-04-03T17:41:26;5.55;46.28
70534;SHT31;58088;51.186;17.130;2023-04-03T17:43:54;5.54;46.73
70534;SHT31;58088;51.186;17.130;2023-04-03T17:46:22;5.54;47.10
70534;SHT31;58088;51.186;17.130;2023-04-03T17:48:50;5.51;47.16
70534;SHT31;58088;51.186;17.130;2023-04-03T17:51:19;5.50;47.40
70534;SHT31;58088;51.186;17.130;2023-04-03T17:53:47;5.50;47.53
70534;SHT31;58088;51.186;17.130;2023-04-03T17:56:27;5.46;47.58
70534;SHT31;58088;51.186;17.130;2023-04-03T17:58:56;5.46;47.85
70534;SHT31;58088;51.186;17.130;2023-04-03T18:01:34;5.44;47.89
70534;SHT31;58088;51.186;17.130;2023-04-03T18:04:04;5.44;48.01